sensor_id;sensor_type;location;lat;lon;timestamp;pressure;altitude;pressure_sealevel;temperature;humidity
58092;BME280;43896;48.178;11.578;2024-03-29T00:01:15;94611.81;;;5.97;60.42
58092;BME280;43896;48.178;11.578;2024-03-29T00:03:41;94603.34;;;6.36;59.63
58092;BME280;43896;48.178;11.578;2024-03-29T00:06:07;94601.53;;;6.12;60.27
58092;BME280;43896;48.178;11.578;2024-03-29T00:08:32;94590.84;;;5.80;60.67
58092;BME280;43896;48.178;11.578;2024-03-29T00:10:58;94583.59;;;6.17;59.68
58092;BME280;43896;48.178;11.578;2024-03-29T00:13:23;94571.78;;;5.80;60.94
58092;BME280;43896;48.178;11.578;2024-03-29T00:15:49;94572.88;;;5.61;61.66
58092;BME280;43896;48.178;11.578;2024-03-29T00:18:14;94556.09;;;5.72;60.55
58092;BME280;43896;48.178;11.578;2024-03-29T00:20:39;94571.53;;;5.57;61.37
58092;BME280;43896;48.178;11.578;2024-03-29T00:23:05;94535.22;;;5.55;61.62
58092;BME280;43896;48.178;11.578;2024-03-29T00:25:30;94552.31;;;5.58;61.71
58092;BME280;43896;48.178;11.578;2024-03-29T00:27:56;94536.81;;;5.40;61.99
58092;BME280;43896;48.178;11.578;2024-03-29T00:30:21;94536.72;;;5.74;61.14
58092;BME280;43896;48.178;11.578;2024-03-29T00:32:46;94536.00;;;5.48;62.52
58092;BME280;43896;48.178;11.578;2024-03-29T00:35:12;94522.22;;;5.80;61.24
58092;BME280;43896;48.178;11.578;2024-03-29T00:37:39;94544.94;;;6.29;59.96
58092;BME280;43896;48.178;11.578;2024-03-29T00:40:05;94549.09;;;5.72;61.75
58092;BME280;43896;48.178;11.578;2024-03-29T00:42:30;94524.31;;;5.68;61.74
58092;BME280;43896;48.178;11.578;2024-03-29T00:44:56;94540.41;;;5.47;62.30
58092;BME280;43896;48.178;11.578;2024-03-29T00:47:21;94550.75;;;5.31;63.56
58092;BME280;43896;48.178;11.578;2024-03-29T00:49:47;94553.91;;;5.42;62.86
58092;BME280;43896;48.178;11.578;2024-03-29T00:52:12;94562.59;;;5.59;63.55
58092;BME280;43896;48.178;11.578;2024-03-29T00:54:37;94520.81;;;5.35;62.63
58092;BME280;43896;48.178;11.578;2024-03-29T00:57:03;94538.94;;;5.53;62.88
58092;BME280;43896;48.178;11.578;2024-03-29T00:59:28;94516.69;;;5.16;63.70
58092;BME280;43896;48.178;11.578;2024-03-29T01:01:54;94524.06;;;5.37;63.33
58092;BME280;43896;48.178;11.578;2024-03-29T01:04:20;94503.31;;;5.19;63.76
58092;BME280;43896;48.178;11.578;2024-03-29T01:06:45;94517.19;;;5.28;63.10
58092;BME280;43896;48.178;11.578;2024-03-29T01:09:11;94526.88;;;5.52;62.71
58092;BME280;43896;48.178;11.578;2024-03-29T01:11:37;94531.31;;;5.68;62.41
58092;BME280;43896;48.178;11.578;2024-03-29T01:14:03;94510.88;;;5.38;62.95
58092;BME280;43896;48.178;11.578;2024-03-29T01:16:28;94499.44;;;5.31;63.10
58092;BME280;43896;48.178;11.578;2024-03-29T01:18:54;94491.31;;;5.34;63.44
58092;BME280;43896;48.178;11.578;2024-03-29T01:21:20;94494.59;;;5.44;63.60
58092;BME280;43896;48.178;11.578;2024-03-29T01:23:45;94492.56;;;5.22;64.31
58092;BME280;43896;48.178;11.578;2024-03-29T01:26:11;94491.63;;;5.23;63.83
58092;BME280;43896;48.178;11.578;2024-03-29T01:28:38;94480.47;;;5.04;64.63
58092;BME280;43896;48.178;11.578;2024-03-29T01:31:04;94452.81;;;5.12;64.55
58092;BME280;43896;48.178;11.578;2024-03-29T01:33:30;94464.38;;;5.09;64.39
58092;BME280;43896;48.178;11.578;2024-03-29T01:35:58;94453.53;;;4.87;64.43
58092;BME280;43896;48.178;11.578;2024-03-29T01:38:24;94445.44;;;5.07;64.29
58092;BME280;43896;48.178;11.578;2024-03-29T01:40:49;94448.94;;;5.16;63.85
58092;BME280;43896;48.178;11.578;2024-03-29T01:43:15;94416.97;;;5.05;63.40
58092;BME280;43896;48.178;11.578;2024-03-29T01:45:41;94429.66;;;5.00;63.32
58092;BME280;43896;48.178;11.578;2024-03-29T01:48:08;94411.34;;;4.76;64.09
58092;BME280;43896;48.178;11.578;2024-03-29T01:50:34;94439.91;;;4.94;63.84
58092;BME280;43896;48.178;11.578;2024-03-29T01:53:01;94414.44;;;4.79;63.60
58092;BME280;43896;48.178;11.578;2024-03-29T01:55:26;94450.16;;;5.03;63.54
58092;BME280;43896;48.178;11.578;2024-03-29T01:57:52;94438.91;;;4.95;63.38
58092;BME280;43896;48.178;11.578;2024-03-29T02:00:18;94429.97;;;4.97;63.51
58092;BME280;43896;48.178;11.578;2024-03-29T02:02:45;94434.88;;;5.08;62.50
58092;BME280;43896;48.178;11.578;2024-03-29T02:05:11;94443.13;;;4.87;62.80
58092;BME280;43896;48.178;11.578;2024-03-29T02:07:36;94443.16;;;4.96;63.03
58092;BME280;43896;48.178;11.578;2024-03-29T02:10:03;94428.78;;;4.92;62.79
58092;BME280;43896;48.178;11.578;2024-03-29T02:12:31;94429.31;;;4.95;63.40
58092;BME280;43896;48.178;11.578;2024-03-29T02:14:56;94439.22;;;4.92;63.59
58092;BME280;43896;48.178;11.578;2024-03-29T02:17:23;94438.91;;;4.95;62.83
58092;BME280;43896;48.178;11.578;2024-03-29T02:19:48;94430.91;;;4.88;63.12
58092;BME280;43896;48.178;11.578;2024-03-29T02:22:15;94441.81;;;4.92;63.14
58092;BME280;43896;48.178;11.578;2024-03-29T02:24:41;94441.00;;;4.91;63.26
58092;BME280;43896;48.178;11.578;2024-03-29T02:27:06;94403.81;;;4.73;63.92
58092;BME280;43896;48.178;11.578;2024-03-29T02:29:32;94406.00;;;4.85;63.65
58092;BME280;43896;48.178;11.578;2024-03-29T02:31:57;94440.66;;;4.86;63.77
58092;BME280;43896;48.178;11.578;2024-03-29T02:34:23;94414.75;;;4.68;64.83
58092;BME280;43896;48.178;11.578;2024-03-29T02:36:48;94410.16;;;4.62;64.43
58092;BME280;43896;48.178;11.578;2024-03-29T02:39:14;94426.56;;;4.62;65.27
58092;BME280;43896;48.178;11.578;2024-03-29T02:41:39;94416.00;;;4.56;65.19
58092;BME280;43896;48.178;11.578;2024-03-29T02:44:05;94430.81;;;4.63;65.52
58092;BME280;43896;48.178;11.578;2024-03-29T02:46:30;94418.72;;;4.46;65.91
58092;BME280;43896;48.178;11.578;2024-03-29T02:48:56;94423.47;;;4.50;66.32
58092;BME280;43896;48.178;11.578;2024-03-29T02:51:21;94384.47;;;4.32;65.49
58092;BME280;43896;48.178;11.578;2024-03-29T02:53:46;94413.47;;;4.38;66.80
58092;BME280;43896;48.178;11.578;2024-03-29T02:56:12;94423.47;;;4.59;66.11
58092;BME280;43896;48.178;11.578;2024-03-29T02:58:39;94422.78;;;4.48;66.74
58092;BME280;43896;48.178;11.578;2024-03-29T03:01:08;94429.56;;;4.41;66.91
58092;BME280;43896;48.178;11.578;2024-03-29T03:03:34;94405.69;;;4.46;66.63
58092;BME280;43896;48.178;11.578;2024-03-29T03:05:59;94411.91;;;4.53;66.56
58092;BME280;43896;48.178;11.578;2024-03-29T03:08:25;94416.81;;;4.56;66.15
58092;BME280;43896;48.178;11.578;2024-03-29T03:11:09;94425.97;;;4.68;65.83
58092;BME280;43896;48.178;11.578;2024-03-29T03:13:34;94394.81;;;4.50;66.21
58092;BME280;43896;48.178;11.578;2024-03-29T03:15:59;94405.59;;;4.56;66.12
58092;BME280;43896;48.178;11.578;2024-03-29T03:18:25;94406.09;;;4.59;65.87
58092;BME280;43896;48.178;11.578;2024-03-29T03:20:51;94394.97;;;4.49;66.17
58092;BME280;43896;48.178;11.578;2024-03-29T03:23:17;94396.28;;;4.53;66.47
58092;BME280;43896;48.178;11.578;2024-03-29T03:25:42;94402.38;;;4.70;66.36
58092;BME280;43896;48.178;11.578;2024-03-29T03:28:08;94397.97;;;4.70;65.69
58092;BME280;43896;48.178;11.578;2024-03-29T03:30:38;94400.59;;;4.79;65.27
58092;BME280;43896;48.178;11.578;2024-03-29T03:33:04;94384.31;;;4.77;65.53
58092;BME280;43896;48.178;11.578;2024-03-29T03:35:30;94351.44;;;4.76;64.40
58092;BME280;43896;48.178;11.578;2024-03-29T03:37:55;94375.03;;;4.74;65.70
58092;BME280;43896;48.178;11.578;2024-03-29T03:40:21;94377.63;;;4.74;65.58
58092;BME280;43896;48.178;11.578;2024-03-29T03:42:47;94354.50;;;4.63;65.63
58092;BME280;43896;48.178;11.578;2024-03-29T03:45:12;94381.25;;;4.81;65.09
58092;BME280;43896;48.178;11.578;2024-03-29T03:47:39;94373.78;;;4.95;64.59
58092;BME280;43896;48.178;11.578;2024-03-29T03:50:05;94361.25;;;4.90;63.79
58092;BME280;43896;48.178;11.578;2024-03-29T03:52:30;94374.44;;;4.97;63.95
58092;BME280;43896;48.178;11.578;2024-03-29T03:54:56;94363.03;;;4.81;63.71
58092;BME280;43896;48.178;11.578;2024-03-29T03:57:21;94389.91;;;4.98;64.42
58092;BME280;43896;48.178;11.578;2024-03-29T03:59:49;94357.16;;;4.87;63.63
58092;BME280;43896;48.178;11.578;2024-03-29T04:02:15;94368.72;;;4.93;63.67
58092;BME280;43896;48.178;11.578;2024-03-29T04:04:40;94345.63;;;4.98;63.54
58092;BME280;43896;48.178;11.578;2024-03-29T04:07:05;94362.06;;;5.07;63.15
58092;BME280;43896;48.178;11.578;2024-03-29T04:09:31;94332.59;;;4.90;62.78
58092;BME280;43896;48.178;11.578;2024-03-29T04:11:56;94384.91;;;5.38;62.80
58092;BME280;43896;48.178;11.578;2024-03-29T04:14:22;94386.38;;;5.16;63.02
58092;BME280;43896;48.178;11.578;2024-03-29T04:16:47;94374.44;;;4.97;64.44
58092;BME280;43896;48.178;11.578;2024-03-29T04:19:13;94372.50;;;4.99;63.70
58092;BME280;43896;48.178;11.578;2024-03-29T04:21:38;94355.72;;;5.01;63.68
58092;BME280;43896;48.178;11.578;2024-03-29T04:24:04;94368.63;;;5.19;62.86
58092;BME280;43896;48.178;11.578;2024-03-29T04:26:32;94350.97;;;4.97;63.00
58092;BME280;43896;48.178;11.578;2024-03-29T04:28:58;94345.13;;;4.95;63.72
58092;BME280;43896;48.178;11.578;2024-03-29T04:31:23;94337.50;;;5.18;62.89
58092;BME280;43896;48.178;11.578;2024-03-29T04:33:49;94359.00;;;5.20;62.92
58092;BME280;43896;48.178;11.578;2024-03-29T04:36:14;94339.28;;;5.17;63.40
58092;BME280;43896;48.178;11.578;2024-03-29T04:38:40;94322.66;;;5.10;63.75
58092;BME280;43896;48.178;11.578;2024-03-29T04:41:06;94306.53;;;4.98;63.58
58092;BME280;43896;48.178;11.578;2024-03-29T04:43:31;94307.38;;;4.99;63.48
58092;BME280;43896;48.178;11.578;2024-03-29T04:46:03;94328.22;;;5.15;63.59
58092;BME280;43896;48.178;11.578;2024-03-29T04:48:34;94324.81;;;5.15;62.86
58092;BME280;43896;48.178;11.578;2024-03-29T04:50:59;94330.50;;;5.26;62.75
58092;BME280;43896;48.178;11.578;2024-03-29T04:53:25;94338.47;;;5.41;62.39
58092;BME280;43896;48.178;11.578;2024-03-29T04:55:57;94345.66;;;5.39;61.83
58092;BME280;43896;48.178;11.578;2024-03-29T04:58:26;94362.13;;;5.40;62.28
58092;BME280;43896;48.178;11.578;2024-03-29T05:00:52;94338.16;;;5.61;61.48
58092;BME280;43896;48.178;11.578;2024-03-29T05:03:18;94349.56;;;5.52;61.92
58092;BME280;43896;48.178;11.578;2024-03-29T05:05:49;94359.69;;;5.38;62.97
58092;BME280;43896;48.178;11.578;2024-03-29T05:08:15;94356.06;;;6.05;60.30
58092;BME280;43896;48.178;11.578;2024-03-29T05:10:40;94361.13;;;5.98;60.82
58092;BME280;43896;48.178;11.578;2024-03-29T05:13:06;94364.56;;;5.50;62.17
58092;BME280;43896;48.178;11.578;2024-03-29T05:15:32;94359.34;;;5.58;62.27
58092;BME280;43896;48.178;11.578;2024-03-29T05:17:58;94362.13;;;5.40;63.40
58092;BME280;43896;48.178;11.578;2024-03-29T05:20:23;94347.13;;;5.25;63.30
58092;BME280;43896;48.178;11.578;2024-03-29T05:22:48;94336.69;;;5.34;62.73
58092;BME280;43896;48.178;11.578;2024-03-29T05:25:14;94356.88;;;5.48;62.81
58092;BME280;43896;48.178;11.578;2024-03-29T05:27:39;94356.88;;;5.73;62.45
58092;BME280;43896;48.178;11.578;2024-03-29T05:30:05;94346.91;;;5.93;62.19
58092;BME280;43896;48.178;11.578;2024-03-29T05:32:31;94324.59;;;5.82;61.48
58092;BME280;43896;48.178;11.578;2024-03-29T05:34:57;94319.09;;;5.52;62.06
58092;BME280;43896;48.178;11.578;2024-03-29T05:37:22;94284.75;;;5.07;63.88
58092;BME280;43896;48.178;11.578;2024-03-29T05:39:51;94300.38;;;5.16;64.26
58092;BME280;43896;48.178;11.578;2024-03-29T05:42:27;94278.88;;;4.97;64.00
58092;BME280;43896;48.178;11.578;2024-03-29T05:44:53;94286.03;;;5.20;64.31
58092;BME280;43896;48.178;11.578;2024-03-29T05:47:19;94290.75;;;5.33;64.30
58092;BME280;43896;48.178;11.578;2024-03-29T05:49:45;94302.66;;;5.35;63.84
58092;BME280;43896;48.178;11.578;2024-03-29T05:52:10;94288.81;;;5.26;63.98
58092;BME280;43896;48.178;11.578;2024-03-29T05:54:39;94277.06;;;5.22;63.68
58092;BME280;43896;48.178;11.578;2024-03-29T05:57:05;94275.63;;;5.28;64.18
58092;BME280;43896;48.178;11.578;2024-03-29T05:59:32;94266.47;;;5.24;63.73
58092;BME280;43896;48.178;11.578;2024-03-29T06:01:57;94300.69;;;5.54;63.24
58092;BME280;43896;48.178;11.578;2024-03-29T06:04:23;94298.72;;;5.56;63.14
58092;BME280;43896;48.178;11.578;2024-03-29T06:06:56;94283.91;;;5.40;63.52
58092;BME280;43896;48.178;11.578;2024-03-29T06:09:23;94315.31;;;5.63;63.54
58092;BME280;43896;48.178;11.578;2024-03-29T06:11:48;94325.22;;;5.84;62.53
58092;BME280;43896;48.178;11.578;2024-03-29T06:14:14;94298.41;;;6.23;60.82
58092;BME280;43896;48.178;11.578;2024-03-29T06:16:39;94338.28;;;6.00;61.88
58092;BME280;43896;48.178;11.578;2024-03-29T06:19:23;94320.00;;;6.00;61.88
58092;BME280;43896;48.178;11.578;2024-03-29T06:21:49;94318.00;;;6.59;60.48
58092;BME280;43896;48.178;11.578;2024-03-29T06:24:14;94330.06;;;6.60;60.43
58092;BME280;43896;48.178;11.578;2024-03-29T06:26:41;94324.34;;;6.64;59.70
58092;BME280;43896;48.178;11.578;2024-03-29T06:29:07;94343.84;;;7.31;58.57
58092;BME280;43896;48.178;11.578;2024-03-29T06:31:35;94322.41;;;6.58;59.63
58092;BME280;43896;48.178;11.578;2024-03-29T06:34:00;94342.53;;;6.81;59.26
58092;BME280;43896;48.178;11.578;2024-03-29T06:36:26;94357.81;;;6.92;58.55
58092;BME280;43896;48.178;11.578;2024-03-29T06:38:54;94347.75;;;7.73;57.03
58092;BME280;43896;48.178;11.578;2024-03-29T06:41:20;94337.91;;;7.37;56.98
58092;BME280;43896;48.178;11.578;2024-03-29T06:43:45;94305.31;;;7.25;57.07
58092;BME280;43896;48.178;11.578;2024-03-29T06:46:11;94334.38;;;8.21;55.66
58092;BME280;43896;48.178;11.578;2024-03-29T06:48:37;94313.97;;;8.01;56.06
58092;BME280;43896;48.178;11.578;2024-03-29T06:51:03;94335.13;;;7.77;56.63
58092;BME280;43896;48.178;11.578;2024-03-29T06:53:29;94320.41;;;8.80;53.13
58092;BME280;43896;48.178;11.578;2024-03-29T06:55:55;94337.16;;;8.34;55.41
58092;BME280;43896;48.178;11.578;2024-03-29T06:58:24;94328.28;;;7.91;55.91
58092;BME280;43896;48.178;11.578;2024-03-29T07:00:49;94346.00;;;8.33;55.11
58092;BME280;43896;48.178;11.578;2024-03-29T07:03:15;94330.06;;;8.43;54.83
58092;BME280;43896;48.178;11.578;2024-03-29T07:05:42;94337.59;;;8.68;53.56
58092;BME280;43896;48.178;11.578;2024-03-29T07:08:07;94331.72;;;8.80;53.90
58092;BME280;43896;48.178;11.578;2024-03-29T07:10:33;94297.59;;;8.95;53.63
58092;BME280;43896;48.178;11.578;2024-03-29T07:12:58;94319.03;;;9.20;52.54
58092;BME280;43896;48.178;11.578;2024-03-29T07:15:23;94315.28;;;9.51;52.91
58092;BME280;43896;48.178;11.578;2024-03-29T07:17:49;94302.72;;;9.47;51.78
58092;BME280;43896;48.178;11.578;2024-03-29T07:20:16;94311.41;;;9.47;52.16
58092;BME280;43896;48.178;11.578;2024-03-29T07:22:42;94314.25;;;10.02;51.97
58092;BME280;43896;48.178;11.578;2024-03-29T07:25:08;94311.25;;;9.77;51.68
58092;BME280;43896;48.178;11.578;2024-03-29T07:27:33;94280.34;;;10.07;51.14
58092;BME280;43896;48.178;11.578;2024-03-29T07:30:02;94296.47;;;10.04;51.50
58092;BME280;43896;48.178;11.578;2024-03-29T07:32:29;94308.28;;;9.87;52.32
58092;BME280;43896;48.178;11.578;2024-03-29T07:34:55;94301.00;;;10.17;51.86
58092;BME280;43896;48.178;11.578;2024-03-29T07:37:26;94302.75;;;10.31;51.42
58092;BME280;43896;48.178;11.578;2024-03-29T07:39:51;94293.91;;;10.46;50.26
58092;BME280;43896;48.178;11.578;2024-03-29T07:42:17;94294.41;;;10.69;49.71
58092;BME280;43896;48.178;11.578;2024-03-29T07:44:44;94308.72;;;11.29;49.03
58092;BME280;43896;48.178;11.578;2024-03-29T07:47:10;94307.91;;;11.48;47.09
58092;BME280;43896;48.178;11.578;2024-03-29T07:49:38;94333.06;;;11.57;47.57
58092;BME280;43896;48.178;11.578;2024-03-29T07:52:04;94333.88;;;11.85;46.64
58092;BME280;43896;48.178;11.578;2024-03-29T07:54:33;94318.06;;;12.11;46.44
58092;BME280;43896;48.178;11.578;2024-03-29T07:56:59;94335.19;;;12.74;44.34
58092;BME280;43896;48.178;11.578;2024-03-29T07:59:24;94338.63;;;12.74;44.81
58092;BME280;43896;48.178;11.578;2024-03-29T08:01:50;94347.13;;;12.76;44.71
58092;BME280;43896;48.178;11.578;2024-03-29T08:04:17;94322.84;;;12.48;44.71
58092;BME280;43896;48.178;11.578;2024-03-29T08:06:43;94341.84;;;12.83;44.09
58092;BME280;43896;48.178;11.578;2024-03-29T08:09:08;94349.88;;;13.02;43.83
58092;BME280;43896;48.178;11.578;2024-03-29T08:11:35;94345.97;;;13.11;43.99
58092;BME280;43896;48.178;11.578;2024-03-29T08:14:00;94354.16;;;13.48;43.31
58092;BME280;43896;48.178;11.578;2024-03-29T08:16:26;94325.66;;;13.57;42.98
58092;BME280;43896;48.178;11.578;2024-03-29T08:18:51;94343.28;;;13.24;43.22
58092;BME280;43896;48.178;11.578;2024-03-29T08:21:17;94339.41;;;13.20;43.54
58092;BME280;43896;48.178;11.578;2024-03-29T08:23:43;94335.09;;;13.39;43.54
58092;BME280;43896;48.178;11.578;2024-03-29T08:26:11;94298.50;;;13.43;43.26
58092;BME280;43896;48.178;11.578;2024-03-29T08:28:37;94303.59;;;13.69;42.85
58092;BME280;43896;48.178;11.578;2024-03-29T08:31:05;94326.03;;;13.85;42.39
58092;BME280;43896;48.178;11.578;2024-03-29T08:33:32;94309.84;;;13.75;43.02
58092;BME280;43896;48.178;11.578;2024-03-29T08:35:57;94312.28;;;13.52;43.05
58092;BME280;43896;48.178;11.578;2024-03-29T08:38:23;94308.19;;;13.81;42.37
58092;BME280;43896;48.178;11.578;2024-03-29T08:40:49;94278.53;;;14.22;41.57
58092;BME280;43896;48.178;11.578;2024-03-29T08:43:15;94317.94;;;14.86;41.28
58092;BME280;43896;48.178;11.578;2024-03-29T08:45:44;94303.84;;;14.74;42.46
58092;BME280;43896;48.178;11.578;2024-03-29T08:48:09;94295.66;;;14.38;42.42
58092;BME280;43896;48.178;11.578;2024-03-29T08:50:36;94315.81;;;14.76;41.96
58092;BME280;43896;48.178;11.578;2024-03-29T08:53:02;94283.91;;;14.34;41.85
58092;BME280;43896;48.178;11.578;2024-03-29T08:55:29;94304.56;;;14.62;41.82
58092;BME280;43896;48.178;11.578;2024-03-29T08:57:56;94305.16;;;14.46;42.11
58092;BME280;43896;48.178;11.578;2024-03-29T09:00:21;94296.72;;;14.12;42.67
58092;BME280;43896;48.178;11.578;2024-03-29T09:02:47;94289.81;;;14.11;42.68
58092;BME280;43896;48.178;11.578;2024-03-29T09:05:12;94297.53;;;14.13;43.27
58092;BME280;43896;48.178;11.578;2024-03-29T09:07:38;94300.84;;;14.26;43.79
58092;BME280;43896;48.178;11.578;2024-03-29T09:10:04;94310.91;;;14.61;43.24
58092;BME280;43896;48.178;11.578;2024-03-29T09:12:29;94313.53;;;14.80;42.79
58092;BME280;43896;48.178;11.578;2024-03-29T09:14:55;94274.16;;;14.72;43.06
58092;BME280;43896;48.178;11.578;2024-03-29T09:17:20;94308.53;;;14.90;42.72
58092;BME280;43896;48.178;11.578;2024-03-29T09:19:49;94308.81;;;15.31;42.71
58092;BME280;43896;48.178;11.578;2024-03-29T09:22:16;94317.00;;;15.29;42.79
58092;BME280;43896;48.178;11.578;2024-03-29T09:24:41;94302.63;;;15.07;43.06
58092;BME280;43896;48.178;11.578;2024-03-29T09:27:06;94303.97;;;14.97;43.67
58092;BME280;43896;48.178;11.578;2024-03-29T09:29:32;94309.00;;;15.17;44.36
58092;BME280;43896;48.178;11.578;2024-03-29T09:31:57;94298.91;;;15.26;43.28
58092;BME280;43896;48.178;11.578;2024-03-29T09:34:23;94302.78;;;15.54;43.95
58092;BME280;43896;48.178;11.578;2024-03-29T09:36:48;94306.13;;;15.49;43.18
58092;BME280;43896;48.178;11.578;2024-03-29T09:39:14;94311.06;;;15.46;42.89
58092;BME280;43896;48.178;11.578;2024-03-29T09:41:40;94291.38;;;15.53;42.53
58092;BME280;43896;48.178;11.578;2024-03-29T09:44:10;94288.84;;;15.59;42.94
58092;BME280;43896;48.178;11.578;2024-03-29T09:46:36;94301.16;;;15.95;43.02
58092;BME280;43896;48.178;11.578;2024-03-29T09:49:05;94304.97;;;15.87;43.18
58092;BME280;43896;48.178;11.578;2024-03-29T09:51:32;94308.44;;;16.11;43.91
58092;BME280;43896;48.178;11.578;2024-03-29T09:53:59;94283.63;;;15.82;44.58
58092;BME280;43896;48.178;11.578;2024-03-29T09:56:26;94281.03;;;15.64;45.13
58092;BME280;43896;48.178;11.578;2024-03-29T09:58:52;94304.25;;;15.80;45.87
58092;BME280;43896;48.178;11.578;2024-03-29T10:01:18;94306.41;;;15.71;46.49
58092;BME280;43896;48.178;11.578;2024-03-29T10:03:47;94303.09;;;15.76;46.24
58092;BME280;43896;48.178;11.578;2024-03-29T10:06:13;94298.69;;;15.70;46.97
58092;BME280;43896;48.178;11.578;2024-03-29T10:08:40;94313.06;;;15.62;48.08
58092;BME280;43896;48.178;11.578;2024-03-29T10:11:05;94314.97;;;15.43;49.17
58092;BME280;43896;48.178;11.578;2024-03-29T10:13:31;94315.53;;;15.33;49.66
58092;BME280;43896;48.178;11.578;2024-03-29T10:15:56;94299.38;;;15.23;48.83
58092;BME280;43896;48.178;11.578;2024-03-29T10:18:26;94311.38;;;15.07;49.27
58092;BME280;43896;48.178;11.578;2024-03-29T10:21:05;94295.88;;;15.23;49.01
58092;BME280;43896;48.178;11.578;2024-03-29T10:23:31;94318.53;;;15.37;48.97
58092;BME280;43896;48.178;11.578;2024-03-29T10:25:57;94316.41;;;15.57;48.75
58092;BME280;43896;48.178;11.578;2024-03-29T10:28:30;94289.44;;;15.61;48.45
58092;BME280;43896;48.178;11.578;2024-03-29T10:30:56;94294.84;;;16.08;47.82
58092;BME280;43896;48.178;11.578;2024-03-29T10:33:22;94298.63;;;16.36;46.92
58092;BME280;43896;48.178;11.578;2024-03-29T10:35:47;94297.72;;;16.30;46.91
58092;BME280;43896;48.178;11.578;2024-03-29T10:38:13;94292.06;;;16.15;47.34
58092;BME280;43896;48.178;11.578;2024-03-29T10:40:39;94286.84;;;16.55;46.38
58092;BME280;43896;48.178;11.578;2024-03-29T10:43:10;94296.22;;;16.34;46.48
58092;BME280;43896;48.178;11.578;2024-03-29T10:45:41;94278.34;;;16.18;47.69
58092;BME280;43896;48.178;11.578;2024-03-29T10:48:09;94281.56;;;16.20;45.20
58092;BME280;43896;48.178;11.578;2024-03-29T10:50:38;94278.50;;;16.75;42.42
58092;BME280;43896;48.178;11.578;2024-03-29T10:53:06;94266.34;;;16.91;38.15
58092;BME280;43896;48.178;11.578;2024-03-29T10:55:36;94271.81;;;17.42;37.39
58092;BME280;43896;48.178;11.578;2024-03-29T10:58:05;94252.72;;;17.45;35.85
58092;BME280;43896;48.178;11.578;2024-03-29T11:00:38;94257.88;;;17.86;33.88
58092;BME280;43896;48.178;11.578;2024-03-29T11:05:50;94264.94;;;17.92;33.53
58092;BME280;43896;48.178;11.578;2024-03-29T11:08:22;94232.66;;;17.54;34.41
58092;BME280;43896;48.178;11.578;2024-03-29T11:10:50;94227.72;;;17.29;34.97
58092;BME280;43896;48.178;11.578;2024-03-29T11:13:49;94253.00;;;17.60;34.63
58092;BME280;43896;48.178;11.578;2024-03-29T11:16:18;94238.38;;;17.63;34.61
58092;BME280;43896;48.178;11.578;2024-03-29T11:18:47;94250.88;;;17.62;34.65
58092;BME280;43896;48.178;11.578;2024-03-29T11:21:14;94249.47;;;17.43;34.74
58092;BME280;43896;48.178;11.578;2024-03-29T11:23:48;94240.94;;;17.41;34.47
58092;BME280;43896;48.178;11.578;2024-03-29T11:26:14;94252.41;;;17.58;34.89
58092;BME280;43896;48.178;11.578;2024-03-29T11:28:40;94256.72;;;17.93;34.28
58092;BME280;43896;48.178;11.578;2024-03-29T11:31:08;94248.03;;;18.20;33.50
58092;BME280;43896;48.178;11.578;2024-03-29T11:36:22;94245.66;;;17.85;33.23
58092;BME280;43896;48.178;11.578;2024-03-29T11:38:53;94254.09;;;17.65;33.30
58092;BME280;43896;48.178;11.578;2024-03-29T11:41:23;94248.31;;;17.68;33.63
58092;BME280;43896;48.178;11.578;2024-03-29T11:43:52;94244.75;;;17.79;33.48
58092;BME280;43896;48.178;11.578;2024-03-29T11:46:18;94246.22;;;18.21;32.86
58092;BME280;43896;48.178;11.578;2024-03-29T11:48:44;94224.66;;;18.22;33.04
58092;BME280;43896;48.178;11.578;2024-03-29T11:51:16;94224.63;;;18.00;32.32
58092;BME280;43896;48.178;11.578;2024-03-29T11:53:43;94220.41;;;18.21;32.33
58092;BME280;43896;48.178;11.578;2024-03-29T11:56:09;94224.59;;;18.17;33.16
58092;BME280;43896;48.178;11.578;2024-03-29T11:58:37;94226.38;;;18.11;33.00
58092;BME280;43896;48.178;11.578;2024-03-29T12:01:04;94235.09;;;18.07;32.64
58092;BME280;43896;48.178;11.578;2024-03-29T12:03:30;94236.78;;;18.13;33.00
58092;BME280;43896;48.178;11.578;2024-03-29T12:05:58;94230.72;;;18.17;33.47
58092;BME280;43896;48.178;11.578;2024-03-29T12:08:31;94224.94;;;18.04;33.02
58092;BME280;43896;48.178;11.578;2024-03-29T12:11:01;94225.97;;;18.20;33.45
58092;BME280;43896;48.178;11.578;2024-03-29T12:13:27;94219.22;;;18.34;32.94
58092;BME280;43896;48.178;11.578;2024-03-29T12:15:53;94209.06;;;18.75;32.26
58092;BME280;43896;48.178;11.578;2024-03-29T12:18:20;94211.00;;;19.29;31.64
58092;BME280;43896;48.178;11.578;2024-03-29T12:20:46;94224.84;;;19.26;32.06
58092;BME280;43896;48.178;11.578;2024-03-29T12:23:15;94185.41;;;19.28;31.51
58092;BME280;43896;48.178;11.578;2024-03-29T12:25:41;94205.28;;;20.65;30.15
58092;BME280;43896;48.178;11.578;2024-03-29T12:28:08;94201.13;;;20.42;29.92
58092;BME280;43896;48.178;11.578;2024-03-29T12:30:34;94193.72;;;20.49;29.77
58092;BME280;43896;48.178;11.578;2024-03-29T12:33:23;94197.28;;;20.70;29.18
58092;BME280;43896;48.178;11.578;2024-03-29T12:35:50;94176.09;;;21.78;28.39
58092;BME280;43896;48.178;11.578;2024-03-29T12:38:18;94186.78;;;21.88;27.42
58092;BME280;43896;48.178;11.578;2024-03-29T12:40:46;94176.53;;;22.37;26.58
58092;BME280;43896;48.178;11.578;2024-03-29T12:43:19;94178.81;;;22.64;26.10
58092;BME280;43896;48.178;11.578;2024-03-29T12:45:45;94174.84;;;23.16;25.94
58092;BME280;43896;48.178;11.578;2024-03-29T12:48:12;94170.41;;;22.86;26.05
58092;BME280;43896;48.178;11.578;2024-03-29T12:50:40;94173.34;;;22.84;26.16
58092;BME280;43896;48.178;11.578;2024-03-29T12:53:08;94146.81;;;22.33;26.04
58092;BME280;43896;48.178;11.578;2024-03-29T12:55:34;94150.09;;;22.80;26.20
58092;BME280;43896;48.178;11.578;2024-03-29T12:58:01;94144.94;;;23.33;25.70